createdAt,value
2023-05-06T07:48:50.630Z,6.75
2023-05-06T07:51:18.052Z,5.20
2023-05-06T07:53:45.243Z,5.07
2023-05-06T07:56:12.222Z,5.60
2023-05-06T07:58:39.265Z,5.32
2023-05-06T08:01:06.568Z,5.88
2023-05-06T08:03:35.570Z,5.93
2023-05-06T08:08:30.863Z,5.30
2023-05-06T08:10:58.732Z,5.72
2023-05-06T08:13:27.246Z,5.75
2023-05-06T08:15:54.974Z,5.82
2023-05-06T08:18:23.220Z,4.32
2023-05-06T08:20:51.479Z,4.80
2023-05-06T08:23:18.507Z,4.90
2023-05-06T08:25:46.808Z,5.00
2023-05-06T08:28:13.910Z,4.75
2023-05-06T08:30:40.925Z,5.38
2023-05-06T08:33:07.980Z,4.22
2023-05-06T08:35:34.961Z,4.45
2023-05-06T08:38:02.214Z,4.40
2023-05-06T08:40:33.012Z,4.82
2023-05-06T08:43:06.088Z,4.07
2023-05-06T08:45:33.248Z,4.30
2023-05-06T08:48:00.429Z,4.22
2023-05-06T08:50:27.553Z,3.67
2023-05-06T08:52:54.720Z,3.70
2023-05-06T08:55:24.518Z,3.25
2023-05-06T08:57:53.570Z,3.95
2023-05-06T09:02:47.527Z,4.10
2023-05-06T09:05:14.471Z,3.67
2023-05-06T09:07:41.681Z,4.30
2023-05-06T09:10:13.814Z,3.47
2023-05-06T09:12:41.311Z,4.50
2023-05-06T09:15:10.100Z,4.47
2023-05-06T09:17:37.303Z,3.88
2023-05-06T09:20:08.446Z,4.53
2023-05-06T09:22:39.423Z,3.30
2023-05-06T09:25:06.954Z,3.20
2023-05-06T09:27:37.049Z,3.50
2023-05-06T09:30:09.601Z,3.63
2023-05-06T09:32:39.297Z,4.90
2023-05-06T09:35:08.613Z,3.88
2023-05-06T09:37:36.447Z,3.70
2023-05-06T09:40:03.508Z,4.60
2023-05-06T09:42:31.217Z,4.75
2023-05-06T09:45:02.211Z,3.67
2023-05-06T09:47:34.869Z,3.63
2023-05-06T09:50:04.024Z,3.22
2023-05-06T09:54:59.633Z,3.20
2023-05-06T09:57:29.288Z,2.90
2023-05-06T09:59:57.854Z,3.40
2023-05-06T10:02:25.682Z,3.63
2023-05-06T10:04:56.223Z,2.92
2023-05-06T10:07:25.926Z,3.25
2023-05-06T10:09:54.510Z,2.72
2023-05-06T10:12:21.963Z,2.78
2023-05-06T10:14:49.061Z,3.00
2023-05-06T10:17:18.938Z,2.97
2023-05-06T10:19:47.227Z,3.17
2023-05-06T10:22:27.359Z,3.13
2023-05-06T10:25:03.812Z,2.63
2023-05-06T10:27:33.364Z,3.10
2023-05-06T10:30:01.177Z,2.45
2023-05-06T10:32:32.696Z,3.30
2023-05-06T10:35:09.378Z,3.58
2023-05-06T10:37:38.813Z,2.72
2023-05-06T10:40:07.139Z,3.50
2023-05-06T10:42:35.784Z,3.47
2023-05-06T10:45:04.687Z,3.05
2023-05-06T10:47:58.029Z,3.22
2023-05-06T10:50:26.986Z,2.92
2023-05-06T10:53:01.827Z,2.63
2023-05-06T10:55:33.972Z,2.42
2023-05-06T10:58:12.970Z,2.80
2023-05-06T11:00:39.931Z,2.53
2023-05-06T11:03:18.942Z,2.20
2023-05-06T11:05:52.194Z,3.20
2023-05-06T11:08:24.299Z,2.42
2023-05-06T11:10:52.128Z,2.42
2023-05-06T11:13:23.135Z,2.67
2023-05-06T11:15:52.231Z,2.05
2023-05-06T11:21:05.226Z,2.13
2023-05-06T11:23:49.614Z,2.05
2023-05-06T11:26:16.831Z,1.85
2023-05-06T11:28:48.117Z,1.65
2023-05-06T11:31:16.149Z,1.48
2023-05-06T11:33:51.414Z,1.40
2023-05-06T11:36:20.032Z,1.30
2023-05-06T11:38:53.082Z,1.17
2023-05-06T11:41:22.295Z,1.65
2023-05-06T11:43:51.146Z,1.08
2023-05-06T11:46:23.319Z,1.20
2023-05-06T11:48:50.789Z,1.40
2023-05-06T11:51:24.914Z,0.95
2023-05-06T11:53:53.222Z,1.35
2023-05-06T11:56:20.173Z,1.08
2023-05-06T11:58:47.390Z,1.48
2023-05-06T12:01:14.425Z,1.15
2023-05-06T12:03:41.444Z,1.20
2023-05-06T12:06:08.494Z,1.05
2023-05-06T12:08:37.724Z,1.27
2023-05-06T12:11:08.785Z,1.10
2023-05-06T12:13:40.861Z,1.05
2023-05-06T12:16:08.683Z,1.40
2023-05-06T12:18:36.426Z,1.30
2023-05-06T12:21:03.615Z,0.93
2023-05-06T12:23:30.723Z,1.42
2023-05-06T12:26:05.994Z,1.77
2023-05-06T12:28:35.650Z,1.23
2023-05-06T12:31:19.207Z,1.60
2023-05-06T12:33:49.269Z,1.83
2023-05-06T12:36:17.326Z,1.80
2023-05-06T12:38:52.905Z,1.20
2023-05-06T12:41:20.872Z,1.38
2023-05-06T12:43:48.205Z,1.67
2023-05-06T12:46:16.625Z,1.30
2023-05-06T12:49:03.077Z,1.83
2023-05-06T12:51:31.202Z,1.60
2023-05-06T12:53:59.394Z,1.00
2023-05-06T12:56:26.391Z,1.15
2023-05-06T12:59:03.312Z,1.35
2023-05-06T13:01:31.712Z,1.40
2023-05-06T13:03:59.028Z,1.08
2023-05-06T13:06:26.204Z,1.20
2023-05-06T13:08:53.236Z,1.33
2023-05-06T13:11:22.406Z,1.27
2023-05-06T13:13:49.420Z,1.38
2023-05-06T13:16:16.671Z,1.23
2023-05-06T13:18:43.730Z,1.20
2023-05-06T13:21:10.844Z,1.30
2023-05-06T13:23:40.304Z,1.73
2023-05-06T13:26:08.838Z,2.67
2023-05-06T13:28:36.914Z,1.60
2023-05-06T13:31:04.253Z,1.63
2023-05-06T13:33:31.555Z,1.42
2023-05-06T13:35:58.653Z,1.38
2023-05-06T13:38:25.588Z,1.38
2023-05-06T13:40:54.138Z,1.75
2023-05-06T13:43:22.537Z,1.40
2023-05-06T13:45:49.503Z,1.38
2023-05-06T13:48:17.592Z,1.92
2023-05-06T13:50:46.173Z,1.70
2023-05-06T13:53:14.528Z,1.80
2023-05-06T13:55:42.955Z,1.83
2023-05-06T13:58:10.216Z,1.30
2023-05-06T14:00:37.117Z,2.08
2023-05-06T14:03:04.491Z,1.67
2023-05-06T14:05:32.464Z,1.88
2023-05-06T14:07:59.379Z,1.67
2023-05-06T14:10:26.397Z,1.70
2023-05-06T14:12:53.334Z,1.52
2023-05-06T14:15:20.451Z,1.33
2023-05-06T14:17:47.400Z,1.52
2023-05-06T14:20:14.412Z,1.20
2023-05-06T14:22:41.789Z,1.50
2023-05-06T14:25:12.019Z,1.25
2023-05-06T14:27:39.387Z,1.38
2023-05-06T14:30:09.402Z,1.00
2023-05-06T14:32:36.778Z,1.40
2023-05-06T14:35:04.909Z,1.10
2023-05-06T14:37:31.972Z,1.25
2023-05-06T14:40:00.202Z,1.77
2023-05-06T14:42:27.203Z,1.05
2023-05-06T14:44:55.186Z,0.80
2023-05-06T14:47:22.387Z,1.30
2023-05-06T14:49:49.476Z,1.40
2023-05-06T14:52:16.432Z,0.80
2023-05-06T14:54:43.431Z,1.30
2023-05-06T14:57:11.035Z,1.35
2023-05-06T14:59:38.682Z,1.10
2023-05-06T15:02:09.407Z,1.40
2023-05-06T15:04:36.954Z,1.08
2023-05-06T15:07:04.563Z,1.50
2023-05-06T15:09:31.622Z,1.58
2023-05-06T15:11:58.719Z,0.82
2023-05-06T15:14:26.050Z,1.23
2023-05-06T15:16:56.634Z,1.58
2023-05-06T15:19:24.301Z,1.67
2023-05-06T15:21:51.598Z,1.33
2023-05-06T15:24:18.543Z,1.08
2023-05-06T15:26:45.534Z,0.82
2023-05-06T15:29:13.017Z,1.23
2023-05-06T15:31:41.218Z,0.98
2023-05-06T15:34:10.773Z,1.35
2023-05-06T15:36:38.588Z,1.30
2023-05-06T15:39:05.666Z,1.58
2023-05-06T15:41:33.882Z,0.98
2023-05-06T15:44:02.652Z,0.90
2023-05-06T15:46:31.011Z,1.40
2023-05-06T15:49:22.378Z,3.95
2023-05-06T15:51:45.235Z,1.45
2023-05-06T15:54:13.687Z,1.38
2023-05-06T15:56:41.621Z,1.23
2023-05-06T15:59:09.069Z,1.37
2023-05-06T16:02:18.921Z,1.48
2023-05-06T16:04:24.352Z,1.80
2023-05-06T16:06:51.584Z,3.28
2023-05-06T16:09:18.568Z,1.33
2023-05-06T16:11:45.493Z,1.35
2023-05-06T16:14:13.220Z,1.67
2023-05-06T16:16:40.245Z,1.73
2023-05-06T16:19:07.607Z,1.50
2023-05-06T16:21:34.782Z,0.90
2023-05-06T16:24:02.624Z,0.88
2023-05-06T16:26:29.825Z,1.03
2023-05-06T16:28:56.734Z,1.10
2023-05-06T16:31:23.768Z,1.42
2023-05-06T16:33:51.218Z,1.08
2023-05-06T16:36:18.155Z,1.13
2023-05-06T16:38:45.103Z,1.27
2023-05-06T16:41:12.047Z,1.27
2023-05-06T16:43:39.029Z,1.60
2023-05-06T16:46:06.544Z,1.67
2023-05-06T16:48:33.674Z,1.50
2023-05-06T16:51:00.799Z,1.60
2023-05-06T16:53:28.180Z,1.40
2023-05-06T16:55:55.736Z,2.58
2023-05-06T16:58:22.756Z,2.15
2023-05-06T17:00:52.785Z,2.65
2023-05-06T17:03:19.937Z,1.95
2023-05-06T17:10:29.380Z,3.00
